Time;durP1;ratioP1;P1;durP2;ratioP2;P2;SDS_P1;SDS_P2;PMS_P1;PMS_P2;Temp;Humidity;BMP_temperature;BMP_pressure;BME280_temperature;BME280_humidity;BME280_pressure;Samples;Min_cycle;Max_cycle;Signal;HPM_P1;HPM_P2
2022/09/25 00:00:46;;;;;;;26.73;21.37;;;13.40;99.90;;;;;;4937080;29;20461;-73
2022/09/25 00:03:13;;;;;;;27.43;21.30;;;13.50;99.90;;;;;;4937032;29;20926;-73
2022/09/25 00:05:40;;;;;;;25.60;20.40;;;13.40;99.90;;;;;;4936724;29;20786;-73
2022/09/25 00:08:06;;;;;;;28.73;20.50;;;13.40;99.90;;;;;;4936791;29;20456;-73
2022/09/25 00:10:33;;;;;;;27.83;21.60;;;13.50;99.90;;;;;;4936505;29;20472;-73
2022/09/25 00:12:58;;;;;;;32.97;22.00;;;13.50;99.90;;;;;;4936702;29;20513;-73
2022/09/25 00:15:24;;;;;;;26.37;22.00;;;13.50;99.90;;;;;;4936580;29;20474;-73
2022/09/25 00:17:50;;;;;;;26.57;20.90;;;13.40;99.90;;;;;;4936563;29;20202;-73
2022/09/25 00:20:17;;;;;;;25.70;20.53;;;13.50;99.90;;;;;;4936628;29;20186;-73
2022/09/25 00:22:43;;;;;;;27.70;22.23;;;13.50;99.90;;;;;;4936555;29;20417;-73
2022/09/25 00:25:13;;;;;;;27.70;22.30;;;13.60;99.90;;;;;;4936344;29;20518;-73
2022/09/25 00:27:40;;;;;;;29.80;21.47;;;13.60;99.90;;;;;;4936175;29;20256;-73
2022/09/25 00:30:09;;;;;;;28.17;22.60;;;13.60;99.90;;;;;;4936565;29;20492;-73
2022/09/25 00:32:35;;;;;;;26.70;22.60;;;13.70;99.90;;;;;;4936607;29;20429;-74
2022/09/25 00:35:01;;;;;;;31.47;23.93;;;13.60;99.90;;;;;;4936135;29;20421;-73
2022/09/25 00:37:27;;;;;;;27.83;21.80;;;13.40;99.90;;;;;;4936331;29;20744;-73
2022/09/25 00:39:54;;;;;;;28.77;21.80;;;13.40;99.90;;;;;;4935217;29;20634;-73
2022/09/25 00:42:21;;;;;;;28.90;22.97;;;13.50;99.90;;;;;;4936699;29;20513;-73
2022/09/25 00:44:59;;;;;;;31.10;22.00;;;13.50;99.90;;;;;;4935939;29;20468;-73
2022/09/25 00:47:55;;;;;;;32.27;22.10;;;13.60;99.90;;;;;;4936298;29;20441;-73
2022/09/25 00:50:40;;;;;;;24.83;21.37;;;13.60;99.90;;;;;;4936524;29;20504;-72
2022/09/25 00:53:34;;;;;;;27.10;21.30;;;13.70;99.90;;;;;;4936559;29;20925;-72
2022/09/25 00:56:01;;;;;;;24.70;21.43;;;13.70;99.90;;;;;;4935619;29;20428;-72
2022/09/25 00:58:31;;;;;;;26.70;20.60;;;13.70;99.90;;;;;;4936062;29;20437;-73
2022/09/25 01:00:58;;;;;;;27.37;21.93;;;13.60;99.90;;;;;;4936387;29;20406;-72
2022/09/25 01:03:25;;;;;;;25.40;20.00;;;13.60;99.90;;;;;;4936056;29;20429;-72
2022/09/25 01:05:51;;;;;;;26.47;22.27;;;13.60;99.90;;;;;;4935690;29;20417;-72
2022/09/25 01:08:24;;;;;;;26.63;19.70;;;13.70;99.90;;;;;;4935941;29;20420;-72
2022/09/25 01:10:49;;;;;;;25.67;20.50;;;13.80;99.90;;;;;;4935947;29;20449;-73
2022/09/25 01:13:16;;;;;;;22.10;19.70;;;13.80;99.90;;;;;;4936269;29;20774;-72
2022/09/25 01:16:02;;;;;;;21.80;19.13;;;13.80;99.90;;;;;;4935610;29;20550;-73
2022/09/25 01:19:06;;;;;;;27.30;19.33;;;13.70;99.90;;;;;;4934627;29;20425;-72
2022/09/25 01:21:43;;;;;;;23.20;17.50;;;13.80;99.90;;;;;;4935807;29;20775;-72
2022/09/25 01:24:17;;;;;;;26.50;18.60;;;13.70;99.90;;;;;;4935778;29;20413;-72
2022/09/25 01:27:44;;;;;;;23.17;18.27;;;13.70;99.90;;;;;;4935890;29;20902;-74
2022/09/25 01:30:13;;;;;;;18.93;16.17;;;13.60;99.90;;;;;;4933889;29;20516;-73
2022/09/25 01:32:50;;;;;;;20.30;17.33;;;13.60;99.90;;;;;;4934131;29;20425;-73
2022/09/25 01:35:38;;;;;;;19.00;16.07;;;13.50;99.90;;;;;;4934806;29;20437;-73
2022/09/25 01:38:19;;;;;;;18.00;15.40;;;13.60;99.90;;;;;;4935826;29;20414;-73
2022/09/25 01:40:52;;;;;;;17.80;15.77;;;13.50;99.90;;;;;;4939382;29;20496;-73
2022/09/25 01:43:52;;;;;;;18.87;15.30;;;13.40;99.90;;;;;;4939628;29;20407;-73
2022/09/25 01:46:24;;;;;;;28.77;16.53;;;13.30;99.90;;;;;;4939361;29;20459;-73
2022/09/25 01:48:56;;;;;;;17.93;14.87;;;13.30;99.90;;;;;;4922476;29;20420;-73
2022/09/25 01:51:35;;;;;;;18.10;14.47;;;13.30;99.90;;;;;;4939288;29;20474;-73
2022/09/25 01:54:09;;;;;;;24.23;14.53;;;13.40;99.90;;;;;;4939060;29;20417;-72
2022/09/25 01:56:54;;;;;;;20.23;14.53;;;13.40;99.90;;;;;;4939367;29;20494;-73
2022/09/25 01:59:26;;;;;;;22.80;14.40;;;13.30;99.90;;;;;;4939368;29;20421;-73
2022/09/25 02:01:53;;;;;;;18.57;13.87;;;13.20;99.90;;;;;;4939383;29;20780;-73
2022/09/25 02:04:27;;;;;;;17.20;14.13;;;13.30;99.90;;;;;;4938907;29;20421;-73
2022/09/25 02:06:57;;;;;;;15.97;14.10;;;13.30;99.90;;;;;;4939140;29;21017;-73
2022/09/25 02:09:46;;;;;;;28.03;16.10;;;13.40;99.90;;;;;;4938976;29;20424;-72
2022/09/25 02:12:33;;;;;;;20.90;13.13;;;13.40;99.90;;;;;;4939034;29;20425;-73
2022/09/25 02:15:08;;;;;;;15.10;13.50;;;13.40;99.90;;;;;;4938673;29;20384;-73
2022/09/25 02:20:35;;;;;;;20.90;14.30;;;13.30;99.90;;;;;;4938864;29;20379;-73
2022/09/25 02:23:22;;;;;;;16.40;12.50;;;13.30;99.90;;;;;;4938902;29;20409;-73
2022/09/25 02:25:51;;;;;;;16.00;13.97;;;13.30;99.90;;;;;;4939041;29;20436;-72
2022/09/25 02:28:17;;;;;;;15.13;12.10;;;13.30;99.90;;;;;;4922830;29;20778;-72
2022/09/25 02:30:44;;;;;;;18.03;12.53;;;13.30;99.90;;;;;;4938079;29;20568;-72
2022/09/25 02:33:10;;;;;;;13.77;10.23;;;13.20;99.90;;;;;;4939188;29;20409;-73
2022/09/25 02:35:37;;;;;;;12.63;10.03;;;13.10;99.90;;;;;;4936951;29;20433;-73
2022/09/25 02:38:03;;;;;;;15.53;9.77;;;13.20;99.90;;;;;;4937421;29;20189;-73
2022/09/25 02:40:58;;;;;;;13.27;8.77;;;13.20;99.90;;;;;;4938487;29;20395;-72
2022/09/25 02:43:57;;;;;;;12.93;8.00;;;13.10;99.90;;;;;;4937967;29;20457;-73
2022/09/25 02:46:44;;;;;;;10.67;7.50;;;13.10;99.90;;;;;;4938271;29;20448;-72
2022/09/25 02:49:32;;;;;;;12.60;7.30;;;13.00;99.90;;;;;;4921331;29;20499;-72
2022/09/25 02:52:16;;;;;;;9.90;6.60;;;13.00;99.90;;;;;;4921203;29;20472;-72
2022/09/25 02:54:55;;;;;;;10.00;6.33;;;13.00;99.90;;;;;;4938127;29;20471;-73
2022/09/25 02:57:44;;;;;;;10.50;6.30;;;13.00;99.90;;;;;;4938022;29;20485;-73
2022/09/25 03:00:10;;;;;;;9.40;6.13;;;13.10;99.90;;;;;;4921269;29;20446;-73
2022/09/25 03:02:38;;;;;;;8.77;5.63;;;13.10;99.90;;;;;;4938177;29;20858;-73
2022/09/25 03:05:05;;;;;;;10.40;5.50;;;13.10;99.90;;;;;;4920592;29;20432;-73
2022/09/25 03:08:36;;;;;;;11.60;5.70;;;13.20;99.90;;;;;;4937636;29;20441;-73
2022/09/25 03:10:18;;;;;;;9.23;6.87;;;13.10;99.90;;;;;;4937449;29;20484;-72
2022/09/25 03:12:44;;;;;;;7.50;5.63;;;13.10;99.90;;;;;;4936434;29;20429;-72
2022/09/25 03:15:11;;;;;;;12.63;6.30;;;13.10;99.90;;;;;;4936171;29;20422;-73
2022/09/25 03:17:38;;;;;;;10.23;6.47;;;13.10;99.90;;;;;;4936302;29;20745;-73
2022/09/25 03:20:05;;;;;;;12.27;6.37;;;13.10;99.90;;;;;;4936637;29;20536;-73
2022/09/25 03:22:31;;;;;;;13.70;6.43;;;13.10;99.90;;;;;;4937648;29;20437;-72
2022/09/25 03:24:57;;;;;;;12.30;7.27;;;13.10;99.90;;;;;;4937529;29;20533;-73
2022/09/25 03:27:26;;;;;;;9.90;5.77;;;13.20;99.90;;;;;;4937660;29;20216;-73
2022/09/25 03:29:54;;;;;;;8.30;5.30;;;13.10;99.90;;;;;;4937287;29;20189;-72
2022/09/25 03:32:20;;;;;;;8.43;5.30;;;13.00;99.90;;;;;;4937460;29;20429;-73
2022/09/25 03:34:46;;;;;;;9.07;5.93;;;13.00;99.90;;;;;;4937284;29;20848;-73
2022/09/25 03:37:11;;;;;;;7.57;5.40;;;13.00;99.90;;;;;;4937718;29;20473;-72
2022/09/25 03:39:37;;;;;;;15.20;6.80;;;13.00;99.90;;;;;;4937737;29;20530;-73
2022/09/25 03:42:03;;;;;;;11.80;6.47;;;13.00;99.90;;;;;;4936593;29;20662;-72
2022/09/25 03:44:29;;;;;;;11.47;6.77;;;12.90;99.90;;;;;;4937271;29;20532;-72
2022/09/25 03:46:54;;;;;;;12.50;6.47;;;12.80;99.90;;;;;;4937113;29;20446;-73
2022/09/25 03:49:21;;;;;;;11.53;7.00;;;12.80;99.90;;;;;;4937635;29;20224;-73
2022/09/25 03:51:47;;;;;;;13.00;7.17;;;12.80;99.90;;;;;;4936303;29;20217;-73
2022/09/25 03:54:12;;;;;;;10.70;7.60;;;12.80;99.90;;;;;;4936750;29;20885;-72
2022/09/25 03:56:38;;;;;;;16.13;7.43;;;12.70;99.90;;;;;;4937317;29;20208;-72
2022/09/25 03:59:04;;;;;;;12.43;7.23;;;12.70;99.90;;;;;;4935658;29;20189;-72
2022/09/25 04:01:30;;;;;;;13.13;7.10;;;12.60;99.90;;;;;;4935390;29;21045;-72
2022/09/25 04:03:56;;;;;;;9.77;6.40;;;12.50;99.90;;;;;;4936661;29;20658;-72
2022/09/25 04:06:24;;;;;;;10.70;7.30;;;12.50;99.90;;;;;;4935597;29;20232;-72
2022/09/25 04:08:50;;;;;;;8.47;6.40;;;12.50;99.90;;;;;;4936798;29;20800;-72
2022/09/25 04:11:18;;;;;;;9.37;6.90;;;12.40;99.90;;;;;;4936803;29;20460;-72
2022/09/25 04:13:44;;;;;;;14.07;6.03;;;12.40;99.90;;;;;;4936741;29;20417;-72
2022/09/25 04:16:11;;;;;;;7.60;5.07;;;12.40;99.90;;;;;;4936218;29;20786;-73
2022/09/25 04:18:37;;;;;;;10.30;5.27;;;12.40;99.90;;;;;;4937024;29;20421;-73
2022/09/25 04:21:05;;;;;;;9.70;4.20;;;12.40;99.90;;;;;;4936730;29;20452;-72
2022/09/25 04:23:31;;;;;;;10.90;4.03;;;12.40;99.90;;;;;;4935709;29;20433;-72
2022/09/25 04:25:56;;;;;;;5.53;3.90;;;12.40;99.90;;;;;;4936202;29;20512;-72
2022/09/25 04:28:23;;;;;;;10.57;3.53;;;12.40;99.90;;;;;;4936498;29;20249;-72
2022/09/25 04:30:49;;;;;;;8.30;3.33;;;12.40;99.90;;;;;;4936558;29;20216;-72
2022/09/25 04:36:00;;;;;;;10.80;3.50;;;12.30;99.90;;;;;;4936523;29;20510;-73
2022/09/25 04:38:26;;;;;;;10.70;3.13;;;12.40;99.90;;;;;;4936404;29;20441;-73
2022/09/25 04:40:52;;;;;;;13.63;3.43;;;12.30;99.90;;;;;;4935314;29;20516;-72
2022/09/25 04:43:18;;;;;;;8.80;3.53;;;12.40;99.90;;;;;;4935462;29;20938;-72
2022/09/25 04:45:46;;;;;;;10.83;3.60;;;12.30;99.90;;;;;;4936030;29;20714;-72
2022/09/25 04:48:11;;;;;;;6.47;2.87;;;12.30;99.90;;;;;;4936223;29;20196;-72
2022/09/25 04:50:38;;;;;;;6.83;2.60;;;12.30;99.90;;;;;;4936194;29;20946;-72
2022/09/25 04:53:03;;;;;;;8.20;3.30;;;12.30;99.90;;;;;;4936454;29;20534;-73
2022/09/25 04:55:29;;;;;;;9.87;3.13;;;12.30;99.90;;;;;;4935930;29;20420;-72
2022/09/25 04:57:56;;;;;;;8.97;3.17;;;12.30;99.90;;;;;;4936151;29;20208;-72
2022/09/25 05:00:25;;;;;;;8.53;3.60;;;12.30;99.90;;;;;;4936145;29;20713;-73
2022/09/25 05:02:51;;;;;;;6.23;3.07;;;12.30;99.90;;;;;;4936277;29;20426;-72
2022/09/25 05:05:18;;;;;;;10.80;2.80;;;12.30;99.90;;;;;;4935908;29;20503;-72
2022/09/25 05:07:58;;;;;;;8.47;3.07;;;12.40;99.90;;;;;;4934867;29;20465;-72
2022/09/25 05:10:27;;;;;;;7.87;2.87;;;12.30;99.90;;;;;;4935771;29;20465;-73
2022/09/25 05:12:57;;;;;;;4.63;2.57;;;12.30;99.90;;;;;;4934703;29;20432;-72
2022/09/25 05:15:24;;;;;;;5.90;2.80;;;12.20;99.90;;;;;;4938819;29;20424;-73
2022/09/25 05:17:52;;;;;;;9.60;2.73;;;12.30;99.90;;;;;;4939840;29;20433;-72
2022/09/25 05:20:17;;;;;;;10.73;4.50;;;12.20;99.90;;;;;;4939754;29;20994;-72
2022/09/25 05:22:43;;;;;;;12.37;3.60;;;12.20;99.90;;;;;;4938546;29;20433;-72
2022/09/25 05:25:09;;;;;;;8.27;3.63;;;12.20;99.90;;;;;;4939716;29;20185;-73
2022/09/25 05:27:34;;;;;;;8.60;3.50;;;12.20;99.90;;;;;;4939770;29;20204;-73
2022/09/25 05:30:01;;;;;;;5.20;2.80;;;12.10;99.90;;;;;;4939799;29;20205;-73
2022/09/25 05:32:26;;;;;;;6.33;3.63;;;12.10;99.90;;;;;;4939717;29;20181;-72
2022/09/25 05:34:52;;;;;;;9.30;3.30;;;12.10;99.90;;;;;;4938003;29;20492;-73
2022/09/25 05:37:18;;;;;;;6.77;3.00;;;12.10;99.90;;;;;;4939487;29;20277;-72
2022/09/25 05:39:43;;;;;;;10.40;3.60;;;12.10;99.90;;;;;;4939604;29;20643;-72
2022/09/25 05:42:09;;;;;;;5.80;3.40;;;12.00;99.90;;;;;;4939448;29;20174;-72
2022/09/25 05:44:35;;;;;;;7.83;3.37;;;12.00;99.90;;;;;;4939079;29;20184;-73
2022/09/25 05:47:00;;;;;;;8.77;4.27;;;12.00;99.90;;;;;;4940199;29;20201;-72
2022/09/25 05:49:27;;;;;;;7.73;3.03;;;12.00;99.90;;;;;;4940087;29;20658;-72
2022/09/25 05:51:53;;;;;;;15.80;4.13;;;11.90;99.90;;;;;;4938364;29;20236;-72
2022/09/25 05:54:18;;;;;;;6.30;3.47;;;12.00;99.90;;;;;;4937755;29;20456;-72
2022/09/25 05:56:44;;;;;;;22.33;4.00;;;11.90;99.90;;;;;;4939118;29;20208;-72
2022/09/25 05:59:09;;;;;;;7.60;3.07;;;11.90;99.90;;;;;;4939130;29;20208;-72
2022/09/25 06:01:35;;;;;;;13.07;4.47;;;12.00;99.90;;;;;;4939235;29;20650;-72
2022/09/25 06:04:01;;;;;;;9.03;3.60;;;12.10;99.90;;;;;;4939052;29;20182;-72
2022/09/25 06:06:28;;;;;;;11.97;4.30;;;12.00;99.90;;;;;;4939627;29;20205;-72
2022/09/25 06:08:54;;;;;;;9.23;4.07;;;12.10;99.90;;;;;;4926071;29;20544;-73
2022/09/25 06:11:19;;;;;;;11.43;4.53;;;12.00;99.90;;;;;;4927481;29;20476;-73
2022/09/25 06:13:49;;;;;;;11.30;4.30;;;12.10;99.90;;;;;;4945454;29;20174;-72
2022/09/25 06:16:18;;;;;;;20.23;4.17;;;12.10;99.90;;;;;;4945250;29;20248;-73
2022/09/25 06:18:45;;;;;;;9.50;3.83;;;12.20;99.90;;;;;;4945944;29;20413;-73
2022/09/25 06:21:11;;;;;;;9.70;4.33;;;12.10;99.90;;;;;;4944539;29;21025;-72
2022/09/25 06:23:36;;;;;;;7.77;3.73;;;12.10;99.90;;;;;;4946120;29;20449;-72
2022/09/25 06:26:04;;;;;;;6.77;3.80;;;12.10;99.90;;;;;;4943593;29;20328;-72
2022/09/25 06:28:30;;;;;;;11.33;4.60;;;12.20;99.90;;;;;;4945206;29;20197;-72
2022/09/25 06:30:59;;;;;;;8.27;4.20;;;12.20;99.90;;;;;;4927739;29;20509;-72
2022/09/25 06:33:25;;;;;;;9.90;3.23;;;12.30;99.90;;;;;;4943418;29;20465;-72
2022/09/25 06:35:51;;;;;;;15.03;5.10;;;12.40;99.90;;;;;;4921547;29;20898;-72
2022/09/25 06:38:16;;;;;;;11.50;3.87;;;12.40;99.90;;;;;;4939115;29;20213;-72
2022/09/25 06:40:42;;;;;;;9.47;4.60;;;12.40;99.90;;;;;;4922024;29;20193;-73
2022/09/25 06:43:15;;;;;;;11.30;4.20;;;12.30;99.90;;;;;;4939011;29;20190;-73
2022/09/25 06:45:41;;;;;;;8.47;4.10;;;12.30;99.90;;;;;;4938264;29;20181;-72
2022/09/25 06:48:10;;;;;;;13.97;3.40;;;12.40;99.90;;;;;;4938627;29;20438;-73
2022/09/25 06:50:39;;;;;;;8.50;3.10;;;12.50;99.90;;;;;;4938646;29;20468;-72
2022/09/25 06:53:04;;;;;;;9.57;3.53;;;12.50;99.90;;;;;;4937508;29;20456;-73
2022/09/25 06:55:31;;;;;;;8.13;3.23;;;12.50;99.90;;;;;;4937677;29;20777;-72
2022/09/25 06:57:57;;;;;;;9.70;3.97;;;12.60;99.90;;;;;;4937850;29;20260;-71
2022/09/25 07:00:22;;;;;;;7.87;2.83;;;12.70;99.90;;;;;;4937835;29;20421;-72
2022/09/25 07:05:33;;;;;;;4.77;2.67;;;13.00;99.90;;;;;;4938002;29;20353;-72
2022/09/25 07:07:59;;;;;;;6.60;2.90;;;13.10;99.90;;;;;;4938028;29;20456;-73
2022/09/25 07:10:24;;;;;;;11.10;3.30;;;13.20;99.90;;;;;;4938802;29;20909;-73
2022/09/25 07:12:50;;;;;;;10.33;2.43;;;13.20;99.90;;;;;;4937425;29;20209;-72
2022/09/25 07:15:16;;;;;;;9.83;3.20;;;13.30;99.90;;;;;;4932002;29;20210;-72
2022/09/25 07:17:42;;;;;;;6.60;2.50;;;13.40;99.90;;;;;;4926989;29;20271;-76
2022/09/25 07:20:11;;;;;;;16.40;3.00;;;13.40;99.90;;;;;;4927372;29;20482;-76
2022/09/25 07:22:37;;;;;;;7.60;2.47;;;13.50;99.90;;;;;;4937634;29;20433;-76
2022/09/25 07:25:03;;;;;;;7.73;2.70;;;13.70;99.90;;;;;;4937241;29;20457;-76
2022/09/25 07:27:29;;;;;;;10.93;3.33;;;13.70;99.90;;;;;;4935732;29;20494;-72
2022/09/25 07:29:55;;;;;;;7.07;2.77;;;13.70;99.90;;;;;;4936862;29;20433;-72
2022/09/25 07:32:21;;;;;;;7.00;2.20;;;13.70;99.90;;;;;;4927839;29;20506;-72
2022/09/25 07:34:49;;;;;;;8.80;2.20;;;13.80;99.90;;;;;;4926503;29;20557;-72
2022/09/25 07:37:15;;;;;;;11.60;2.10;;;13.90;99.90;;;;;;4933686;29;20356;-73
2022/09/25 07:39:40;;;;;;;7.50;2.07;;;14.00;99.90;;;;;;4936917;29;20508;-72
2022/09/25 07:42:07;;;;;;;8.03;2.87;;;14.00;99.90;;;;;;4937156;29;20969;-72
2022/09/25 07:44:33;;;;;;;6.60;2.20;;;14.10;99.90;;;;;;4937075;29;20200;-72
2022/09/25 07:47:00;;;;;;;7.80;2.17;;;14.30;99.90;;;;;;4938442;29;20939;-72
2022/09/25 07:49:25;;;;;;;6.20;2.50;;;14.60;99.90;;;;;;4936658;29;20557;-73
2022/09/25 07:51:51;;;;;;;6.87;2.70;;;14.60;99.90;;;;;;4928409;29;20501;-72
2022/09/25 07:54:17;;;;;;;3.97;2.20;;;14.70;99.90;;;;;;4920098;29;20186;-72
2022/09/25 07:56:42;;;;;;;3.63;2.00;;;14.80;99.90;;;;;;4917961;29;20497;-73
2022/09/25 07:59:08;;;;;;;7.00;2.87;;;15.00;99.90;;;;;;4917703;29;20261;-72
2022/09/25 08:01:34;;;;;;;4.40;1.77;;;15.10;99.90;;;;;;4917071;29;20201;-73
2022/09/25 08:03:59;;;;;;;5.93;1.50;;;15.00;99.90;;;;;;4916552;29;20250;-73
2022/09/25 08:06:25;;;;;;;10.90;2.60;;;15.10;99.90;;;;;;4916776;29;20719;-72
2022/09/25 08:08:50;;;;;;;6.90;2.30;;;15.10;99.90;;;;;;4917972;29;20202;-72
2022/09/25 08:11:17;;;;;;;8.47;2.37;;;14.90;99.90;;;;;;4917282;29;20210;-72
2022/09/25 08:13:44;;;;;;;5.17;2.23;;;14.70;99.90;;;;;;4917866;29;20202;-73
2022/09/25 08:16:16;;;;;;;8.43;3.20;;;14.50;99.90;;;;;;4917292;29;20477;-73
2022/09/25 08:18:45;;;;;;;7.63;2.53;;;14.30;99.90;;;;;;4917634;29;20420;-73
2022/09/25 08:21:13;;;;;;;9.77;2.70;;;14.20;99.90;;;;;;4917503;29;20946;-72
2022/09/25 08:23:39;;;;;;;13.10;2.53;;;14.20;99.90;;;;;;4917306;29;20422;-72
2022/09/25 08:26:05;;;;;;;10.70;2.90;;;14.20;99.90;;;;;;4917316;29;20500;-72
2022/09/25 08:28:31;;;;;;;10.03;2.63;;;14.20;99.90;;;;;;4917289;29;20426;-72
2022/09/25 08:31:00;;;;;;;12.37;2.80;;;14.30;99.90;;;;;;4917419;29;20982;-72
2022/09/25 08:33:26;;;;;;;14.03;2.67;;;14.10;99.90;;;;;;4917367;29;20174;-71
2022/09/25 08:35:56;;;;;;;10.03;2.13;;;14.20;99.90;;;;;;4915756;29;20828;-71
2022/09/25 08:38:23;;;;;;;10.47;2.80;;;14.30;99.90;;;;;;4917711;29;20193;-71
2022/09/25 08:40:59;;;;;;;10.90;2.50;;;14.40;99.90;;;;;;4917102;29;20414;-71
2022/09/25 08:43:26;;;;;;;8.23;1.87;;;14.50;99.90;;;;;;4917501;29;20385;-71
2022/09/25 08:49:02;;;;;;;9.57;2.60;;;15.00;99.90;;;;;;4917038;29;20441;-72
2022/09/25 08:51:35;;;;;;;6.60;3.03;;;15.60;99.90;;;;;;4917220;29;20450;-72
2022/09/25 08:54:02;;;;;;;6.03;2.10;;;16.10;99.90;;;;;;4919126;29;20392;-72
2022/09/25 08:56:31;;;;;;;22.30;3.00;;;16.50;99.90;;;;;;4933267;29;20449;-72
2022/09/25 08:59:15;;;;;;;10.87;2.83;;;16.80;99.90;;;;;;4936016;29;20388;-72
2022/09/25 09:01:51;;;;;;;7.93;2.20;;;17.10;99.90;;;;;;4935924;29;20926;-72
2022/09/25 09:04:19;;;;;;;8.70;2.50;;;17.40;99.90;;;;;;4935482;29;20427;-72
2022/09/25 09:06:50;;;;;;;7.03;2.27;;;18.00;99.90;;;;;;4936069;29;20434;-72
2022/09/25 09:09:38;;;;;;;9.03;2.60;;;18.10;99.90;;;;;;4935846;29;20429;-72
2022/09/25 09:12:17;;;;;;;4.90;1.93;;;17.90;99.90;;;;;;4935660;29;20461;-72
2022/09/25 09:14:46;;;;;;;9.90;2.17;;;17.40;99.90;;;;;;4935603;29;20399;-73
2022/09/25 09:17:19;;;;;;;5.37;1.87;;;17.80;99.90;;;;;;4918442;29;20421;-73
2022/09/25 09:19:47;;;;;;;9.10;2.77;;;18.30;99.90;;;;;;4935963;29;20508;-73
2022/09/25 09:22:16;;;;;;;10.80;2.37;;;18.10;99.90;;;;;;4935699;29;20921;-73
2022/09/25 09:25:01;;;;;;;10.07;2.40;;;17.30;99.90;;;;;;4935495;29;20429;-73
2022/09/25 09:27:50;;;;;;;6.93;2.67;;;17.40;99.90;;;;;;4932154;29;20441;-73
2022/09/25 09:30:42;;;;;;;7.90;2.27;;;17.70;99.90;;;;;;4935743;29;20545;-72
2022/09/25 09:33:20;;;;;;;7.37;1.70;;;18.00;99.90;;;;;;4934816;29;20426;-72
2022/09/25 09:35:51;;;;;;;5.80;1.80;;;18.30;99.90;;;;;;4935481;29;20421;-73
2022/09/25 09:38:28;;;;;;;5.33;1.90;;;18.80;99.90;;;;;;4935861;29;20410;-73
2022/09/25 09:40:54;;;;;;;7.70;1.80;;;18.70;99.90;;;;;;4935868;29;20473;-73
2022/09/25 09:43:35;;;;;;;6.83;1.63;;;18.70;99.90;;;;;;4934774;29;20392;-73
2022/09/25 09:46:12;;;;;;;7.03;2.33;;;19.30;99.90;;;;;;4935289;29;20566;-72
2022/09/25 09:48:52;;;;;;;4.90;1.70;;;19.60;99.90;;;;;;4935512;29;20806;-73
2022/09/25 09:51:24;;;;;;;7.00;1.83;;;19.70;99.90;;;;;;4935378;29;20881;-73
2022/09/25 09:54:06;;;;;;;9.67;2.00;;;20.00;99.90;;;;;;4935360;29;20441;-73
2022/09/25 09:56:34;;;;;;;4.23;1.70;;;19.60;99.90;;;;;;4935571;29;20437;-73
2022/09/25 09:59:04;;;;;;;6.47;1.90;;;19.60;99.90;;;;;;4935619;29;20448;-72
2022/09/25 10:01:41;;;;;;;6.03;1.63;;;19.80;99.90;;;;;;4938464;29;20413;-73
2022/09/25 10:04:25;;;;;;;5.10;1.47;;;20.80;99.90;;;;;;4938724;29;20405;-73
2022/09/25 10:06:57;;;;;;;3.67;1.30;;;20.80;99.90;;;;;;4938810;29;20508;-73
2022/09/25 10:09:25;;;;;;;5.17;1.77;;;20.70;99.90;;;;;;4938863;29;20425;-73
2022/09/25 10:11:59;;;;;;;4.20;1.70;;;20.80;99.90;;;;;;4938953;29;20469;-73
2022/09/25 10:14:31;;;;;;;4.63;1.73;;;21.30;99.90;;;;;;4938545;29;20499;-73
2022/09/25 10:16:57;;;;;;;4.43;1.87;;;21.90;99.90;;;;;;4938915;29;20433;-73
2022/09/25 10:19:26;;;;;;;4.00;1.60;;;22.20;99.90;;;;;;4938845;29;20425;-74
2022/09/25 10:22:05;;;;;;;8.23;2.17;;;21.80;99.90;;;;;;4921605;29;20236;-73
2022/09/25 10:25:00;;;;;;;4.20;1.80;;;21.40;99.90;;;;;;4938419;29;20834;-74
2022/09/25 10:27:27;;;;;;;5.10;1.80;;;20.60;99.90;;;;;;4938673;29;20444;-73
2022/09/25 10:30:07;;;;;;;4.50;1.60;;;21.00;99.90;;;;;;4938450;29;20910;-73
2022/09/25 10:32:45;;;;;;;5.43;2.17;;;22.00;99.90;;;;;;4938123;29;20832;-73
2022/09/25 10:35:18;;;;;;;5.13;1.93;;;22.20;99.90;;;;;;4938334;29;20505;-73
2022/09/25 10:37:46;;;;;;;4.87;1.50;;;20.90;99.90;;;;;;4938350;29;20469;-73
2022/09/25 10:40:28;;;;;;;4.60;1.67;;;21.00;99.90;;;;;;4938377;29;20456;-73
2022/09/25 10:43:17;;;;;;;6.33;1.80;;;21.30;99.90;;;;;;4938658;29;20401;-73
2022/09/25 10:45:43;;;;;;;3.50;1.90;;;21.30;99.90;;;;;;4937862;29;20414;-73
2022/09/25 10:51:22;;;;;;;6.43;1.87;;;21.10;99.90;;;;;;4938473;29;20519;-74
2022/09/25 10:54:09;;;;;;;2.63;1.70;;;20.60;99.90;;;;;;4937997;29;20410;-73
2022/09/25 10:56:36;;;;;;;6.30;2.03;;;20.80;99.90;;;;;;4937757;29;20441;-73
2022/09/25 10:59:08;;;;;;;3.37;1.73;;;20.90;99.90;;;;;;4938230;29;20492;-74
2022/09/25 11:01:36;;;;;;;3.10;2.00;;;20.30;99.90;;;;;;4920755;29;20425;-74
2022/09/25 11:04:23;;;;;;;5.87;2.10;;;20.50;99.90;;;;;;4936412;29;20421;-73
2022/09/25 11:06:52;;;;;;;3.00;1.90;;;20.40;99.90;;;;;;4937855;29;20443;-74
2022/09/25 11:09:26;;;;;;;4.53;1.90;;;19.90;99.90;;;;;;4937824;29;20421;-72
2022/09/25 11:12:05;;;;;;;4.13;1.87;;;19.50;99.90;;;;;;4937709;29;20574;-73
2022/09/25 11:14:33;;;;;;;7.10;2.00;;;19.30;99.90;;;;;;4937501;29;20412;-72
2022/09/25 11:17:01;;;;;;;9.93;4.87;;;19.10;99.90;;;;;;4937574;29;20437;-73
2022/09/25 11:19:30;;;;;;;7.30;2.87;;;18.70;99.90;;;;;;4937652;29;20428;-74
2022/09/25 11:22:03;;;;;;;6.63;1.67;;;18.40;99.90;;;;;;4937661;29;20429;-72
2022/09/25 11:24:32;;;;;;;5.17;2.20;;;18.30;99.90;;;;;;4937329;29;20396;-74
2022/09/25 11:27:55;;;;;;;4.07;2.07;;;18.30;99.90;;;;;;4937288;29;20407;-73
2022/09/25 11:30:22;;;;;;;6.47;1.77;;;18.50;99.90;;;;;;4914480;29;20465;-74
2022/09/25 11:33:08;;;;;;;4.37;1.73;;;19.10;99.90;;;;;;4937566;29;20411;-73
2022/09/25 11:35:55;;;;;;;5.13;1.70;;;19.30;99.90;;;;;;4936973;29;20459;-73
2022/09/25 11:41:39;;;;;;;4.00;2.60;;;19.00;99.90;;;;;;4937391;29;20428;-74
2022/09/25 11:44:39;;;;;;;2.83;1.70;;;19.10;99.90;;;;;;4937003;29;20410;-73
2022/09/25 11:47:27;;;;;;;5.07;1.87;;;19.20;99.90;;;;;;4937217;29;20441;-73
2022/09/25 11:49:55;;;;;;;4.77;1.87;;;19.60;99.90;;;;;;4937077;29;20445;-74
2022/09/25 11:53:04;;;;;;;3.17;1.23;;;19.90;99.90;;;;;;4937117;29;20493;-74
2022/09/25 11:55:55;;;;;;;4.10;1.73;;;20.00;99.90;;;;;;4936759;29;20384;-74
2022/09/25 11:58:28;;;;;;;2.97;1.37;;;20.00;99.90;;;;;;4937231;29;20416;-75
2022/09/25 12:01:15;;;;;;;3.80;1.43;;;20.30;99.90;;;;;;4936966;29;20395;-74
2022/09/25 12:04:12;;;;;;;5.73;1.23;;;19.90;99.90;;;;;;4936906;29;20860;-74
2022/09/25 12:07:04;;;;;;;4.67;1.47;;;19.70;99.90;;;;;;4936998;29;20444;-74
2022/09/25 12:09:42;;;;;;;3.03;1.20;;;19.80;99.90;;;;;;4936867;29;20448;-74
2022/09/25 12:12:26;;;;;;;6.83;1.33;;;20.40;99.90;;;;;;4936925;29;20452;-74
2022/09/25 12:15:41;;;;;;;1.97;1.20;;;20.60;99.90;;;;;;4936417;29;20500;-74
2022/09/25 12:18:24;;;;;;;5.93;1.70;;;20.40;99.90;;;;;;4936760;29;20384;-74
2022/09/25 12:20:52;;;;;;;2.27;1.10;;;20.40;99.90;;;;;;4936731;29;20384;-73
2022/09/25 12:23:37;;;;;;;2.23;1.30;;;20.10;99.90;;;;;;4936279;29;20418;-74
2022/09/25 12:26:31;;;;;;;6.57;1.60;;;20.00;99.90;;;;;;4936566;29;20429;-74
2022/09/25 12:29:27;;;;;;;6.17;1.23;;;19.50;99.90;;;;;;4936652;29;20831;-74
2022/09/25 12:32:19;;;;;;;3.43;1.10;;;19.80;99.90;;;;;;4936586;29;20920;-74
2022/09/25 12:35:21;;;;;;;5.27;1.30;;;19.60;99.90;;;;;;4936421;29;20406;-74
2022/09/25 12:37:53;;;;;;;2.80;1.13;;;19.80;99.90;;;;;;4936352;29;20479;-74
2022/09/25 12:40:37;;;;;;;2.80;1.17;;;20.70;99.90;;;;;;4936377;29;20483;-74
2022/09/25 12:43:13;;;;;;;4.70;1.33;;;21.30;99.90;;;;;;4936354;29;20839;-74
2022/09/25 12:45:55;;;;;;;2.67;0.90;;;22.00;99.90;;;;;;4935933;29;20395;-74
2022/09/25 12:48:43;;;;;;;3.50;1.50;;;22.30;99.90;;;;;;4936227;29;20433;-73
2022/09/25 12:51:27;;;;;;;3.43;1.20;;;22.30;99.90;;;;;;4936400;29;20463;-74
2022/09/25 12:53:59;;;;;;;6.33;3.10;;;22.40;99.90;;;;;;4919062;29;20938;-74
2022/09/25 12:56:36;;;;;;;2.80;1.90;;;22.40;99.90;;;;;;4936288;29;20443;-74
2022/09/25 12:59:07;;;;;;;4.73;1.57;;;22.20;99.90;;;;;;4934873;29;20408;-73
2022/09/25 13:01:44;;;;;;;2.60;1.93;;;21.90;99.90;;;;;;4936032;29;20421;-73
2022/09/25 13:04:25;;;;;;;6.43;5.30;;;21.60;99.90;;;;;;4918855;29;20496;-74
2022/09/25 13:07:02;;;;;;;5.27;1.90;;;21.30;99.90;;;;;;4934858;29;20441;-73
2022/09/25 13:09:38;;;;;;;2.97;1.30;;;20.70;99.90;;;;;;4935695;29;20413;-74
2022/09/25 13:12:32;;;;;;;3.50;1.43;;;20.40;99.90;;;;;;4936028;29;20460;-74
2022/09/25 13:15:14;;;;;;;3.10;1.30;;;20.40;99.90;;;;;;4935781;29;20416;-74
2022/09/25 13:17:44;;;;;;;3.43;1.27;;;20.30;99.90;;;;;;4918594;29;20449;-73
2022/09/25 13:20:35;;;;;;;5.70;2.03;;;20.50;99.90;;;;;;4934975;29;20394;-74
2022/09/25 13:23:07;;;;;;;4.67;2.00;;;20.60;99.90;;;;;;4916468;29;20408;-74
2022/09/25 13:25:46;;;;;;;7.43;1.50;;;20.90;99.90;;;;;;4935493;29;20393;-74